Disclaimer

Please do not use the information listed here in-flight or in-navigation, as they are not provided to us by the airports but are provided by volunteers, so they might be outdated.

Search


Regions


Airport information page

Radio informations:
Tower (TWR) - 118.3 MHz
PMSV METRO - 125.0 MHz
Ground (GND) - 121.9 MHz
DEP - 119.3 MHz
Automatic Terminal Information Service (ATIS) - 128.3 MHz
Approach (APP) - 119.3 MHz
ATOC - 131.1 MHz
AIR GND - 131.9 MHz

Airport informations:
Latitude: 63° 59' 06.00" N
Longitude: 022° 36' 20.00" W
Elevation: 171 feet - 52 meters
Operating hours: 24 hour operations
Operating agency: Military-civil joint use airport
Timezone: UTC 0
Fuel: JP-8, SemiKeroscene MIL Spec T-83133, without icing inhibitor

100/130 MIL Spec, low lead, aviation gasoline (BLUE)

Runway information:
02/20 - 10019 x 197 feet< - >3054 x 60 meters
11/29 - 10056 x 197 feet< - >3065 x 60 meters

Recent METARs:
BIKF 192000Z 13030G40KT 9999 FEW017 BKN032 08/05 Q1024
BIKF 192030Z 13027KT 9999 FEW017 BKN033 08/05 Q1024
BIKF 192100Z 13028G40KT 9999 FEW019 BKN033 08/04 Q1025

Airport on the map: